Terminal Aerodrome Forecast
Issued by NWS

Home | Current Version | Previous Version | Text Only | Print | Product List | Glossary On
Versions: 1 2 3 4 5 6 7 8 9 10 11 12 13 14 15 16 17 18 19 20 21 22 23 24
000
FTUS41 KPBZ 012116 AAA
TAFHLG
TAF AMD
KHLG 012116Z 0121/0218 24007KT P6SM VCTS BKN035CB
      TEMPO 0122/0123 2SM TSRA OVC020CB
     FM020500 VRB03KT 4SM -SHRA BR OVC025
     FM020700 VRB03KT 3SM -SHRA OVC007
     FM021400 33005KT P6SM OVC015=

USA.gov is the U.S. government's official web portal to all federal, state and local government web resources and services.